Time;durP1;ratioP1;P1;durP2;ratioP2;P2;SDS_P1;SDS_P2;PMS_P1;PMS_P2;Temp;Humidity;BMP_temperature;BMP_pressure;BME280_temperature;BME280_humidity;BME280_pressure;Samples;Min_cycle;Max_cycle;Signal;HPM_P1;HPM_P2
2021/09/30 00:02:15;;;;;;;2.23;0.97;;;;;;;;;;5139238;27;20472;-71
2021/09/30 00:04:42;;;;;;;2.07;1.00;;;;;;;;;;5139099;27;20510;-73
2021/09/30 00:07:09;;;;;;;1.50;0.73;;;;;;;;;;5138478;27;20601;-72
2021/09/30 00:09:39;;;;;;;1.33;0.70;;;;;;;;;;5139952;27;21102;-71
2021/09/30 00:12:10;;;;;;;2.10;0.77;;;;;;;;;;5139190;27;20462;-72
2021/09/30 00:14:47;;;;;;;3.10;1.10;;;;;;;;;;5130620;27;20462;-72
2021/09/30 00:33:59;;;;;;;6.23;1.47;;;;;;;;;;5118061;27;20445;-73
2021/09/30 00:42:06;;;;;;;3.07;1.33;;;;;;;;;;5118477;27;20897;-72
2021/09/30 00:47:35;;;;;;;2.40;1.00;;;;;;;;;;5118289;27;20477;-72
2021/09/30 00:50:20;;;;;;;2.30;1.23;;;;;;;;;;5134123;27;20453;-72
2021/09/30 00:52:52;;;;;;;1.80;1.00;;;;;;;;;;5137594;27;20447;-71
2021/09/30 01:45:37;;;;;;;1.30;0.70;;;;;;;;;;5117539;27;20898;-72
2021/09/30 01:46:34;;;;;;;2.63;1.63;;;;;;;;;;5136486;27;21035;-73
2021/09/30 01:52:26;;;;;;;3.37;1.50;;;;;;;;;;5131094;27;20465;-73
2021/09/30 01:58:09;;;;;;;2.50;1.40;;;;;;;;;;5117239;27;20715;-71
2021/09/30 02:20:28;;;;;;;1.83;0.80;;;;;;;;;;5116766;27;20531;-71
2021/09/30 02:28:44;;;;;;;9.03;1.47;;;;;;;;;;5096859;27;20478;-72
2021/09/30 02:34:38;;;;;;;3.20;1.40;;;;;;;;;;5141037;27;20449;-72
2021/09/30 02:35:03;;;;;;;2.10;1.13;;;;;;;;;;5137064;27;20439;-72
2021/09/30 02:59:50;;;;;;;2.33;1.00;;;;;;;;;;5119671;27;20422;-72
2021/09/30 03:02:18;;;;;;;4.73;1.13;;;;;;;;;;5132176;27;20485;-72
2021/09/30 03:04:46;;;;;;;1.70;0.80;;;;;;;;;;5138535;27;20442;-72
2021/09/30 03:07:16;;;;;;;2.43;0.90;;;;;;;;;;5140464;27;20489;-71
2021/09/30 03:09:45;;;;;;;2.83;0.93;;;;;;;;;;5140642;27;20453;-72
2021/09/30 03:12:21;;;;;;;3.77;1.00;;;;;;;;;;5140955;27;20460;-71
2021/09/30 03:14:59;;;;;;;2.90;0.77;;;;;;;;;;5133709;27;20839;-72
2021/09/30 03:17:31;;;;;;;1.20;0.70;;;;;;;;;;5120205;27;20448;-73
2021/09/30 03:20:03;;;;;;;5.77;1.00;;;;;;;;;;5119218;27;20450;-72
2021/09/30 03:22:31;;;;;;;1.67;0.70;;;;;;;;;;5138283;27;20460;-73
2021/09/30 03:24:59;;;;;;;6.80;2.30;;;;;;;;;;5132370;27;20447;-72
2021/09/30 03:27:27;;;;;;;4.23;1.70;;;;;;;;;;5128914;27;20560;-71
2021/09/30 03:29:54;;;;;;;2.30;1.30;;;;;;;;;;5138106;27;20498;-71
2021/09/30 03:32:21;;;;;;;2.80;0.80;;;;;;;;;;5140634;27;20462;-72
2021/09/30 03:34:49;;;;;;;2.10;0.87;;;;;;;;;;5131680;27;20907;-72
2021/09/30 03:37:19;;;;;;;4.80;2.43;;;;;;;;;;5133661;27;20530;-72
2021/09/30 03:39:47;;;;;;;3.83;1.10;;;;;;;;;;5139925;27;20472;-72
2021/09/30 03:42:13;;;;;;;2.30;0.87;;;;;;;;;;5122893;27;20643;-72
2021/09/30 03:44:40;;;;;;;6.93;1.03;;;;;;;;;;5120468;27;20574;-72
2021/09/30 03:47:08;;;;;;;4.00;1.20;;;;;;;;;;5135614;27;20891;-72
2021/09/30 03:49:35;;;;;;;1.50;0.60;;;;;;;;;;5139838;27;20443;-71
2021/09/30 03:52:09;;;;;;;3.13;0.90;;;;;;;;;;5130894;27;20514;-73
2021/09/30 03:54:42;;;;;;;9.67;1.53;;;;;;;;;;5138238;27;20449;-73
2021/09/30 03:57:22;;;;;;;2.23;0.70;;;;;;;;;;5139297;27;20512;-72
2021/09/30 03:59:49;;;;;;;1.60;0.80;;;;;;;;;;5139774;27;20453;-72
2021/09/30 04:02:16;;;;;;;2.00;0.80;;;;;;;;;;5120694;27;20458;-72
2021/09/30 04:04:46;;;;;;;2.70;1.00;;;;;;;;;;5119964;27;20447;-71
2021/09/30 04:07:18;;;;;;;4.40;0.90;;;;;;;;;;5118064;27;20530;-73
2021/09/30 04:09:48;;;;;;;2.80;0.97;;;;;;;;;;5136726;27;20494;-72
2021/09/30 04:12:16;;;;;;;3.33;0.80;;;;;;;;;;5119251;27;20443;-72
2021/09/30 04:14:44;;;;;;;4.53;1.00;;;;;;;;;;5118515;27;20455;-72
2021/09/30 04:17:11;;;;;;;4.70;1.50;;;;;;;;;;5119420;27;20447;-72
2021/09/30 04:19:38;;;;;;;3.70;1.37;;;;;;;;;;5137960;27;20548;-71
2021/09/30 04:22:05;;;;;;;3.90;1.53;;;;;;;;;;5135109;27;20457;-74
2021/09/30 04:24:33;;;;;;;4.67;0.93;;;;;;;;;;5125225;27;20458;-73
2021/09/30 04:27:00;;;;;;;4.73;1.07;;;;;;;;;;5118105;27;20494;-71
2021/09/30 04:29:28;;;;;;;3.30;0.90;;;;;;;;;;5117958;27;20451;-72
2021/09/30 04:31:55;;;;;;;2.80;1.73;;;;;;;;;;5118893;27;20462;-71
2021/09/30 04:34:23;;;;;;;2.60;0.90;;;;;;;;;;5117091;27;20463;-72
2021/09/30 04:36:50;;;;;;;4.90;1.30;;;;;;;;;;5118105;27;20814;-72
2021/09/30 04:39:17;;;;;;;3.77;1.23;;;;;;;;;;5117628;27;20461;-73
2021/09/30 04:41:44;;;;;;;3.63;0.90;;;;;;;;;;5117992;27;20859;-73
2021/09/30 04:44:12;;;;;;;3.40;1.17;;;;;;;;;;5117673;27;20454;-73
2021/09/30 04:46:40;;;;;;;2.50;0.93;;;;;;;;;;5117109;27;20454;-72
2021/09/30 04:49:07;;;;;;;3.10;1.40;;;;;;;;;;5116629;27;21425;-72
2021/09/30 04:51:34;;;;;;;2.10;0.90;;;;;;;;;;5115626;27;20458;-72
2021/09/30 04:54:01;;;;;;;3.40;1.20;;;;;;;;;;5116988;27;20451;-72
2021/09/30 04:56:29;;;;;;;1.77;0.87;;;;;;;;;;5115560;27;20443;-72
2021/09/30 04:58:56;;;;;;;8.93;1.90;;;;;;;;;;5116795;27;20469;-72
2021/09/30 05:01:23;;;;;;;3.20;1.07;;;;;;;;;;5120177;27;20688;-72
2021/09/30 05:03:51;;;;;;;6.80;0.93;;;;;;;;;;5136516;27;20462;-71
2021/09/30 05:06:19;;;;;;;2.30;0.80;;;;;;;;;;5136628;27;20461;-72
2021/09/30 05:08:49;;;;;;;3.87;1.93;;;;;;;;;;5136834;27;20488;-72
2021/09/30 05:11:16;;;;;;;2.37;1.00;;;;;;;;;;5136466;27;20945;-73
2021/09/30 05:13:44;;;;;;;2.10;1.00;;;;;;;;;;5134474;27;20498;-73
2021/09/30 05:16:11;;;;;;;3.00;1.03;;;;;;;;;;5135120;27;20453;-73
2021/09/30 05:18:40;;;;;;;4.10;1.10;;;;;;;;;;5136836;27;20450;-73
2021/09/30 05:21:09;;;;;;;1.70;0.80;;;;;;;;;;5135819;27;20535;-73
2021/09/30 05:23:36;;;;;;;5.93;1.20;;;;;;;;;;5136635;27;20446;-73
2021/09/30 05:26:06;;;;;;;3.97;1.23;;;;;;;;;;5126315;27;20453;-73
2021/09/30 05:28:36;;;;;;;3.20;1.60;;;;;;;;;;5134089;27;20489;-72
2021/09/30 05:31:05;;;;;;;5.30;1.43;;;;;;;;;;5134227;27;20460;-73
2021/09/30 05:33:32;;;;;;;2.53;1.40;;;;;;;;;;5128894;27;20523;-71
2021/09/30 05:35:59;;;;;;;3.10;1.70;;;;;;;;;;5135342;27;20548;-72
2021/09/30 05:38:28;;;;;;;6.23;1.20;;;;;;;;;;5126628;27;20446;-73
2021/09/30 05:40:55;;;;;;;2.03;1.03;;;;;;;;;;5132456;27;20561;-73
2021/09/30 05:43:25;;;;;;;6.23;1.30;;;;;;;;;;5135836;27;20499;-73
2021/09/30 05:46:01;;;;;;;2.43;1.33;;;;;;;;;;5135787;27;20752;-73
2021/09/30 05:48:28;;;;;;;5.10;1.67;;;;;;;;;;5135515;27;20564;-73
2021/09/30 05:50:57;;;;;;;2.33;1.50;;;;;;;;;;5122493;27;20547;-72
2021/09/30 05:53:24;;;;;;;4.17;1.23;;;;;;;;;;5113522;27;20839;-72
2021/09/30 05:55:52;;;;;;;10.70;1.23;;;;;;;;;;5119731;27;20545;-72
2021/09/30 05:58:21;;;;;;;1.80;1.10;;;;;;;;;;5120744;27;20479;-73
2021/09/30 06:00:59;;;;;;;2.73;1.37;;;;;;;;;;5119480;27;20458;-72
2021/09/30 06:12:10;;;;;;;4.90;1.17;;;;;;;;;;5062454;28;20457;-73
2021/09/30 06:14:39;;;;;;;4.20;1.70;;;;;;;;;;5114774;27;20474;-72
2021/09/30 06:17:07;;;;;;;1.80;1.17;;;;;;;;;;5115581;27;20914;-72
2021/09/30 06:19:35;;;;;;;4.50;1.90;;;;;;;;;;5113448;27;20458;-71
2021/09/30 06:22:06;;;;;;;13.03;1.80;;;;;;;;;;5125417;27;20518;-72
2021/09/30 06:24:44;;;;;;;3.40;2.70;;;;;;;;;;5135207;27;20933;-70
2021/09/30 06:27:12;;;;;;;5.00;1.53;;;;;;;;;;5134561;27;21005;-73
2021/09/30 06:29:39;;;;;;;5.17;3.03;;;;;;;;;;5126885;27;20465;-72
2021/09/30 06:32:09;;;;;;;3.53;1.20;;;;;;;;;;5118086;27;20451;-72
2021/09/30 06:34:37;;;;;;;3.80;1.50;;;;;;;;;;5114826;27;20512;-70
2021/09/30 06:37:04;;;;;;;4.13;1.80;;;;;;;;;;5132190;27;20441;-70
2021/09/30 06:39:39;;;;;;;3.10;2.00;;;;;;;;;;5120435;27;20478;-72
2021/09/30 06:42:09;;;;;;;2.70;1.00;;;;;;;;;;5125853;27;20445;-73
2021/09/30 06:44:43;;;;;;;4.33;1.10;;;;;;;;;;5130473;27;20461;-71
2021/09/30 06:47:15;;;;;;;4.60;2.40;;;;;;;;;;5129045;27;20950;-72
2021/09/30 06:49:42;;;;;;;4.13;1.10;;;;;;;;;;5149404;27;20442;-72
2021/09/30 06:52:09;;;;;;;2.33;1.43;;;;;;;;;;5144292;27;20785;-73
2021/09/30 06:54:44;;;;;;;4.40;1.33;;;;;;;;;;5133433;27;20449;-71
2021/09/30 06:57:16;;;;;;;1.50;0.93;;;;;;;;;;5114864;27;20896;-72
2021/09/30 06:59:46;;;;;;;2.80;1.17;;;;;;;;;;5115059;27;20823;-72
2021/09/30 07:02:15;;;;;;;4.10;2.20;;;;;;;;;;5114690;27;20473;-74
2021/09/30 07:04:44;;;;;;;2.80;1.73;;;;;;;;;;5114667;27;20734;-72
2021/09/30 07:07:12;;;;;;;3.40;1.17;;;;;;;;;;5115709;27;20514;-73
2021/09/30 07:09:39;;;;;;;8.13;1.50;;;;;;;;;;5117046;27;20528;-72
2021/09/30 07:12:09;;;;;;;1.73;1.07;;;;;;;;;;5134139;27;20450;-72
2021/09/30 07:14:36;;;;;;;2.47;1.50;;;;;;;;;;5134801;27;20790;-72
2021/09/30 07:17:04;;;;;;;8.90;2.73;;;;;;;;;;5135932;27;20744;-73
2021/09/30 07:19:33;;;;;;;3.70;1.77;;;;;;;;;;5137117;27;20874;-72
2021/09/30 07:22:00;;;;;;;6.60;2.63;;;;;;;;;;5136944;27;20490;-74
2021/09/30 07:24:28;;;;;;;2.43;1.63;;;;;;;;;;5136619;27;20446;-74
2021/09/30 07:26:57;;;;;;;3.47;1.47;;;;;;;;;;5127945;27;20455;-73
2021/09/30 07:29:25;;;;;;;2.43;1.60;;;;;;;;;;5123577;27;20538;-73
2021/09/30 07:32:04;;;;;;;2.00;1.13;;;;;;;;;;5130489;27;20809;-73
2021/09/30 07:34:36;;;;;;;6.50;2.23;;;;;;;;;;5116205;27;20454;-75
2021/09/30 07:37:08;;;;;;;5.57;1.83;;;;;;;;;;5122352;27;20452;-73
2021/09/30 07:39:40;;;;;;;5.00;2.53;;;;;;;;;;5136514;27;20497;-71
2021/09/30 07:42:08;;;;;;;3.77;2.47;;;;;;;;;;5135199;27;20458;-72
2021/09/30 07:44:44;;;;;;;3.50;1.77;;;;;;;;;;5123079;27;20886;-71
2021/09/30 07:47:13;;;;;;;6.90;2.90;;;;;;;;;;5121514;27;20943;-73
2021/09/30 07:49:46;;;;;;;2.17;1.33;;;;;;;;;;5116755;27;20475;-73
2021/09/30 07:52:14;;;;;;;2.50;1.20;;;;;;;;;;5130700;27;20492;-71
2021/09/30 07:54:45;;;;;;;4.17;1.43;;;;;;;;;;5130399;27;20758;-72
2021/09/30 07:57:16;;;;;;;6.23;1.50;;;;;;;;;;5136972;27;20453;-73
2021/09/30 07:59:44;;;;;;;2.17;1.20;;;;;;;;;;5138163;27;20446;-72
2021/09/30 08:02:14;;;;;;;7.80;2.10;;;;;;;;;;5137946;27;20454;-72
2021/09/30 08:04:42;;;;;;;6.43;1.40;;;;;;;;;;5125604;27;20463;-72
2021/09/30 08:07:10;;;;;;;5.03;1.00;;;;;;;;;;5119888;27;20529;-72
2021/09/30 08:09:41;;;;;;;3.37;1.50;;;;;;;;;;5128270;27;20508;-72
2021/09/30 08:12:08;;;;;;;5.23;1.60;;;;;;;;;;5117131;27;20471;-73
2021/09/30 08:14:43;;;;;;;2.70;1.13;;;;;;;;;;5131000;27;20457;-71
2021/09/30 08:17:15;;;;;;;2.80;1.27;;;;;;;;;;5128948;27;20896;-74
2021/09/30 08:19:48;;;;;;;2.40;1.60;;;;;;;;;;5131730;27;20438;-72
2021/09/30 08:22:16;;;;;;;2.10;1.27;;;;;;;;;;5136663;27;20480;-72
2021/09/30 08:24:44;;;;;;;4.60;1.53;;;;;;;;;;5134726;27;20531;-71
2021/09/30 08:27:11;;;;;;;5.10;2.10;;;;;;;;;;5120359;27;21038;-71
2021/09/30 08:29:39;;;;;;;4.63;2.37;;;;;;;;;;5121746;27;20482;-72
2021/09/30 08:32:07;;;;;;;8.93;1.60;;;;;;;;;;5115579;27;20454;-71
2021/09/30 08:34:35;;;;;;;2.53;1.80;;;;;;;;;;5114519;27;20824;-72
2021/09/30 08:37:04;;;;;;;3.83;2.27;;;;;;;;;;5114647;27;20446;-72
2021/09/30 08:39:33;;;;;;;4.70;2.33;;;;;;;;;;5136536;27;20454;-72
2021/09/30 08:42:03;;;;;;;3.97;2.40;;;;;;;;;;5137330;27;20591;-72
2021/09/30 08:44:34;;;;;;;1.90;1.27;;;;;;;;;;5136595;27;20446;-72
2021/09/30 08:47:01;;;;;;;6.10;2.13;;;;;;;;;;5133732;27;20869;-73
2021/09/30 08:49:34;;;;;;;2.87;1.77;;;;;;;;;;5136412;27;20474;-72
2021/09/30 08:52:11;;;;;;;4.00;1.40;;;;;;;;;;5136497;27;20788;-72
2021/09/30 08:54:45;;;;;;;2.43;1.67;;;;;;;;;;5135721;27;20494;-72
2021/09/30 08:57:15;;;;;;;5.73;2.70;;;;;;;;;;5125622;27;20916;-72
2021/09/30 09:00:01;;;;;;;3.80;2.47;;;;;;;;;;5128004;27;20493;-71
2021/09/30 09:02:34;;;;;;;2.57;1.77;;;;;;;;;;5121078;27;20453;-73
2021/09/30 09:05:08;;;;;;;6.10;1.80;;;;;;;;;;5135630;27;20682;-71
2021/09/30 09:07:36;;;;;;;9.70;1.63;;;;;;;;;;5118754;27;20780;-71
2021/09/30 09:10:10;;;;;;;7.10;2.13;;;;;;;;;;5115693;27;20447;-72
2021/09/30 09:12:38;;;;;;;3.10;1.40;;;;;;;;;;5131624;27;20543;-72
2021/09/30 09:15:09;;;;;;;2.43;1.80;;;;;;;;;;5136544;27;20457;-72
2021/09/30 09:17:40;;;;;;;2.13;1.57;;;;;;;;;;5126679;27;20857;-72
2021/09/30 09:20:08;;;;;;;7.33;1.80;;;;;;;;;;5135250;27;20453;-72
2021/09/30 09:22:37;;;;;;;4.30;1.13;;;;;;;;;;5135347;27;20536;-73
2021/09/30 09:25:07;;;;;;;4.00;1.03;;;;;;;;;;5117161;27;20929;-72
2021/09/30 09:27:47;;;;;;;3.00;1.93;;;;;;;;;;5121212;27;20489;-73
2021/09/30 09:30:32;;;;;;;10.13;4.90;;;;;;;;;;5120526;27;20459;-73
2021/09/30 09:35:56;;;;;;;3.27;1.50;;;;;;;;;;5112955;27;20995;-71
2021/09/30 09:38:24;;;;;;;4.40;1.63;;;;;;;;;;5133559;27;20540;-73
2021/09/30 09:41:00;;;;;;;7.47;1.90;;;;;;;;;;5132702;27;20521;-71
2021/09/30 09:43:30;;;;;;;6.43;2.40;;;;;;;;;;5135030;27;20438;-70
2021/09/30 09:46:03;;;;;;;8.23;3.03;;;;;;;;;;5135766;27;20460;-72
2021/09/30 09:48:45;;;;;;;5.30;2.83;;;;;;;;;;5120550;27;20569;-70
2021/09/30 09:51:35;;;;;;;6.10;2.20;;;;;;;;;;5134093;27;20458;-71
2021/09/30 09:54:16;;;;;;;6.20;2.87;;;;;;;;;;5135488;27;20460;-71
2021/09/30 09:56:45;;;;;;;6.77;2.07;;;;;;;;;;5133843;27;20446;-71
2021/09/30 09:59:13;;;;;;;4.37;2.33;;;;;;;;;;5134589;27;20779;-72
2021/09/30 10:01:43;;;;;;;3.00;1.33;;;;;;;;;;5129706;27;20461;-71
2021/09/30 10:04:13;;;;;;;6.73;1.60;;;;;;;;;;5124410;27;20506;-72
2021/09/30 10:06:46;;;;;;;5.30;1.63;;;;;;;;;;5125614;27;20552;-72
2021/09/30 10:12:13;;;;;;;6.53;3.33;;;;;;;;;;5126041;27;20546;-72
2021/09/30 10:14:47;;;;;;;5.73;2.97;;;;;;;;;;5113891;27;20446;-71
2021/09/30 10:17:21;;;;;;;4.43;1.70;;;;;;;;;;5121547;27;20457;-73
2021/09/30 10:19:48;;;;;;;3.87;1.67;;;;;;;;;;5131269;27;20558;-72
2021/09/30 10:22:16;;;;;;;9.60;3.20;;;;;;;;;;5114449;27;20446;-70
2021/09/30 10:24:57;;;;;;;6.33;2.10;;;;;;;;;;5117414;27;20716;-72
2021/09/30 10:27:29;;;;;;;3.20;2.50;;;;;;;;;;5133982;27;20476;-71
2021/09/30 10:30:24;;;;;;;3.30;2.60;;;;;;;;;;5129163;27;20443;-73
2021/09/30 10:33:03;;;;;;;2.70;1.70;;;;;;;;;;5128599;27;20466;-71
2021/09/30 10:35:36;;;;;;;5.43;2.90;;;;;;;;;;5135507;27;20494;-71
2021/09/30 10:38:27;;;;;;;3.93;2.40;;;;;;;;;;5115956;27;20468;-74
2021/09/30 10:41:16;;;;;;;4.83;1.60;;;;;;;;;;5129076;27;20438;-72
2021/09/30 10:43:48;;;;;;;2.17;1.10;;;;;;;;;;5134805;27;20500;-71
2021/09/30 10:46:42;;;;;;;6.90;1.83;;;;;;;;;;5135064;27;20453;-72
2021/09/30 10:49:30;;;;;;;4.80;3.37;;;;;;;;;;5134708;27;20496;-73
2021/09/30 10:52:16;;;;;;;3.60;2.17;;;;;;;;;;5135602;27;20981;-72
2021/09/30 10:54:48;;;;;;;6.43;3.60;;;;;;;;;;5135804;27;20460;-72
2021/09/30 10:57:36;;;;;;;3.97;2.50;;;;;;;;;;5120942;27;20465;-73
2021/09/30 11:00:18;;;;;;;5.77;2.17;;;;;;;;;;5118931;27;20886;-71
2021/09/30 11:03:05;;;;;;;12.77;2.97;;;;;;;;;;5118762;27;20492;-72
2021/09/30 11:05:41;;;;;;;3.30;1.60;;;;;;;;;;5136776;27;20461;-73
2021/09/30 11:08:28;;;;;;;9.23;3.50;;;;;;;;;;5138821;27;20484;-71
2021/09/30 11:11:25;;;;;;;5.87;2.87;;;;;;;;;;5117729;27;20457;-71
2021/09/30 11:14:13;;;;;;;5.03;3.30;;;;;;;;;;5127572;27;20446;-72
2021/09/30 11:16:42;;;;;;;3.73;1.60;;;;;;;;;;5138156;27;20450;-72
2021/09/30 11:19:23;;;;;;;5.00;2.63;;;;;;;;;;5127634;27;20455;-72
2021/09/30 11:21:57;;;;;;;5.00;2.23;;;;;;;;;;5116729;27;20466;-73
2021/09/30 11:24:32;;;;;;;11.30;3.10;;;;;;;;;;5124314;27;20437;-71
2021/09/30 11:27:23;;;;;;;8.10;1.27;;;;;;;;;;5128654;27;20541;-71
2021/09/30 11:30:11;;;;;;;9.40;3.00;;;;;;;;;;5084393;28;21150;-71
2021/09/30 11:32:42;;;;;;;4.33;2.83;;;;;;;;;;5131587;27;20851;-72
2021/09/30 11:35:11;;;;;;;4.17;1.70;;;;;;;;;;5135127;27;20552;-71
2021/09/30 11:37:43;;;;;;;7.00;2.83;;;;;;;;;;5137831;27;20469;-71
2021/09/30 11:40:13;;;;;;;3.60;0.97;;;;;;;;;;5136355;27;20473;-71
2021/09/30 11:42:51;;;;;;;4.43;1.00;;;;;;;;;;5132578;27;20464;-71
2021/09/30 11:45:21;;;;;;;5.50;1.20;;;;;;;;;;5134168;27;20482;-73
2021/09/30 11:47:51;;;;;;;4.47;1.53;;;;;;;;;;5135353;27;20478;-74
2021/09/30 11:50:23;;;;;;;5.37;2.10;;;;;;;;;;5117767;27;20545;-75
2021/09/30 11:53:22;;;;;;;5.20;2.63;;;;;;;;;;5117436;27;20514;-72
2021/09/30 11:56:10;;;;;;;2.73;1.30;;;;;;;;;;5122515;27;20479;-73
2021/09/30 11:58:40;;;;;;;3.77;1.90;;;;;;;;;;5116855;27;21028;-72
2021/09/30 12:01:36;;;;;;;5.47;2.30;;;;;;;;;;5116005;27;20543;-73
2021/09/30 12:04:21;;;;;;;6.37;2.37;;;;;;;;;;5116578;27;20462;-71
2021/09/30 12:06:51;;;;;;;6.20;2.70;;;;;;;;;;5121306;27;20559;-71
2021/09/30 12:09:24;;;;;;;7.50;4.23;;;;;;;;;;5123561;27;20475;-71
2021/09/30 12:12:02;;;;;;;9.57;3.77;;;;;;;;;;5116720;27;20439;-71
2021/09/30 12:14:41;;;;;;;4.53;2.90;;;;;;;;;;5124407;27;20504;-70
2021/09/30 12:17:13;;;;;;;7.33;2.40;;;;;;;;;;5117710;27;20574;-71
2021/09/30 12:19:43;;;;;;;6.93;2.27;;;;;;;;;;5116785;27;20497;-72
2021/09/30 12:22:14;;;;;;;6.17;2.37;;;;;;;;;;5124770;27;20540;-71
2021/09/30 12:24:44;;;;;;;6.80;2.60;;;;;;;;;;5135625;27;20563;-70
2021/09/30 12:27:11;;;;;;;7.40;2.50;;;;;;;;;;5134717;27;20462;-71
2021/09/30 12:29:44;;;;;;;8.00;2.17;;;;;;;;;;5130554;27;20528;-72
2021/09/30 12:32:16;;;;;;;3.17;1.87;;;;;;;;;;5128861;27;20473;-72
2021/09/30 12:34:54;;;;;;;6.50;1.47;;;;;;;;;;5135325;27;20889;-71
2021/09/30 12:37:26;;;;;;;9.93;4.77;;;;;;;;;;5135739;27;21154;-71
2021/09/30 12:40:02;;;;;;;4.87;2.67;;;;;;;;;;5133312;27;20446;-70
2021/09/30 12:42:29;;;;;;;5.47;3.23;;;;;;;;;;5132628;27;20469;-71
2021/09/30 12:44:59;;;;;;;5.60;3.03;;;;;;;;;;5133408;27;20449;-71
2021/09/30 12:47:34;;;;;;;2.40;1.23;;;;;;;;;;5130704;27;20546;-72
2021/09/30 12:50:04;;;;;;;4.67;2.50;;;;;;;;;;5131152;27;20457;-72
2021/09/30 12:52:36;;;;;;;9.10;3.33;;;;;;;;;;5132230;27;20614;-72
2021/09/30 12:55:07;;;;;;;3.50;0.77;;;;;;;;;;5132451;27;20470;-71
2021/09/30 12:57:36;;;;;;;3.50;2.00;;;;;;;;;;5134186;27;20460;-72
2021/09/30 13:00:08;;;;;;;10.17;2.63;;;;;;;;;;5135235;27;20456;-71
2021/09/30 13:02:44;;;;;;;2.60;1.10;;;;;;;;;;5122966;27;20455;-70
2021/09/30 13:05:15;;;;;;;7.13;3.23;;;;;;;;;;5130017;27;21109;-72
2021/09/30 13:07:44;;;;;;;7.30;2.80;;;;;;;;;;5135743;27;20486;-70
2021/09/30 13:10:15;;;;;;;5.20;1.40;;;;;;;;;;5135193;27;20478;-73
2021/09/30 13:12:59;;;;;;;6.00;2.20;;;;;;;;;;5130020;27;20646;-71
2021/09/30 13:15:49;;;;;;;6.77;2.67;;;;;;;;;;5142517;27;20446;-70
2021/09/30 13:18:20;;;;;;;7.93;2.23;;;;;;;;;;5142579;27;20481;-72
2021/09/30 13:21:07;;;;;;;6.63;1.93;;;;;;;;;;5136321;27;20452;-70
2021/09/30 13:23:40;;;;;;;5.17;2.40;;;;;;;;;;5136326;27;20458;-71
2021/09/30 13:26:14;;;;;;;6.97;1.70;;;;;;;;;;5155260;27;20453;-71
2021/09/30 13:28:54;;;;;;;7.70;2.37;;;;;;;;;;5124042;27;20501;-71
2021/09/30 13:31:21;;;;;;;5.67;2.23;;;;;;;;;;5131745;27;20514;-71
2021/09/30 13:34:07;;;;;;;9.60;2.67;;;;;;;;;;5135080;27;20880;-72
2021/09/30 13:36:54;;;;;;;5.83;2.17;;;;;;;;;;5135305;27;20445;-71
2021/09/30 13:39:38;;;;;;;6.97;2.60;;;;;;;;;;5134071;27;20464;-72
2021/09/30 13:42:06;;;;;;;8.70;2.77;;;;;;;;;;5133941;27;20453;-72
2021/09/30 13:44:35;;;;;;;5.23;1.70;;;;;;;;;;5134185;27;20456;-72
2021/09/30 13:47:03;;;;;;;7.30;2.40;;;;;;;;;;5149454;27;20505;-72
2021/09/30 13:49:33;;;;;;;9.60;2.73;;;;;;;;;;5154550;27;20493;-72
2021/09/30 13:52:01;;;;;;;6.50;1.80;;;;;;;;;;5152407;27;20448;-72
2021/09/30 13:54:44;;;;;;;3.00;1.80;;;;;;;;;;5122620;27;20880;-72
2021/09/30 13:57:17;;;;;;;3.97;1.87;;;;;;;;;;5133350;27;20945;-72
2021/09/30 14:00:01;;;;;;;7.40;2.00;;;;;;;;;;5131509;27;20515;-71
2021/09/30 14:02:32;;;;;;;6.10;2.30;;;;;;;;;;5134675;27;20437;-71
2021/09/30 14:05:01;;;;;;;5.30;1.60;;;;;;;;;;5134114;27;21076;-71
2021/09/30 14:07:40;;;;;;;6.80;1.57;;;;;;;;;;5131716;27;20931;-71
2021/09/30 14:10:17;;;;;;;4.30;1.53;;;;;;;;;;5131620;27;20450;-71
2021/09/30 14:12:49;;;;;;;8.83;2.53;;;;;;;;;;5130467;27;20474;-71
2021/09/30 14:15:28;;;;;;;6.97;2.43;;;;;;;;;;5117099;27;20801;-72
2021/09/30 14:17:57;;;;;;;4.80;1.70;;;;;;;;;;5128445;27;20541;-71
2021/09/30 14:20:54;;;;;;;8.37;2.77;;;;;;;;;;5123513;27;20503;-72
2021/09/30 14:23:41;;;;;;;6.80;3.20;;;;;;;;;;5121234;27;20438;-70
2021/09/30 14:26:14;;;;;;;2.80;2.00;;;;;;;;;;5126245;27;20514;-70
2021/09/30 14:28:45;;;;;;;4.23;2.40;;;;;;;;;;5136107;27;20469;-70
2021/09/30 14:31:15;;;;;;;4.50;2.30;;;;;;;;;;5129420;27;20544;-71
2021/09/30 14:33:47;;;;;;;3.83;1.70;;;;;;;;;;5136432;27;20751;-72
2021/09/30 14:36:14;;;;;;;5.13;2.30;;;;;;;;;;5137558;27;20467;-71
2021/09/30 14:38:48;;;;;;;5.27;2.07;;;;;;;;;;5134170;27;20454;-71
2021/09/30 14:41:32;;;;;;;5.20;1.60;;;;;;;;;;5125960;27;20470;-71
2021/09/30 14:44:03;;;;;;;9.87;2.03;;;;;;;;;;5116740;27;20454;-71
2021/09/30 14:46:34;;;;;;;3.63;1.40;;;;;;;;;;5142427;27;20442;-71
2021/09/30 14:49:02;;;;;;;4.80;1.60;;;;;;;;;;5131981;27;20489;-72
2021/09/30 14:51:40;;;;;;;5.53;1.30;;;;;;;;;;5125365;27;20453;-71
2021/09/30 14:54:08;;;;;;;3.33;2.00;;;;;;;;;;5124667;27;20481;-71
2021/09/30 14:56:48;;;;;;;7.60;2.10;;;;;;;;;;5125237;27;20492;-72
2021/09/30 15:02:18;;;;;;;6.00;1.67;;;;;;;;;;5130001;27;20440;-71
2021/09/30 15:04:54;;;;;;;5.37;2.20;;;;;;;;;;5116360;27;20738;-73
2021/09/30 15:07:22;;;;;;;3.30;1.20;;;;;;;;;;5121444;27;20488;-70
2021/09/30 15:09:50;;;;;;;3.90;2.00;;;;;;;;;;5136046;27;20533;-72
2021/09/30 15:12:18;;;;;;;2.87;1.33;;;;;;;;;;5129824;27;20450;-70
2021/09/30 15:14:46;;;;;;;7.10;1.90;;;;;;;;;;5127181;27;20450;-70
2021/09/30 15:17:24;;;;;;;4.87;1.40;;;;;;;;;;5130475;27;20466;-70
2021/09/30 15:20:11;;;;;;;1.87;1.20;;;;;;;;;;5125243;27;20454;-71
2021/09/30 15:22:38;;;;;;;6.30;1.87;;;;;;;;;;5131630;27;20450;-71
2021/09/30 15:25:08;;;;;;;6.40;2.60;;;;;;;;;;5115528;27;20459;-71
2021/09/30 15:27:35;;;;;;;6.50;2.47;;;;;;;;;;5120867;27;20453;-71
2021/09/30 15:30:02;;;;;;;6.73;2.13;;;;;;;;;;5133239;27;20459;-71
2021/09/30 15:32:38;;;;;;;7.70;2.37;;;;;;;;;;5124770;27;21024;-71
2021/09/30 15:35:12;;;;;;;7.07;3.37;;;;;;;;;;5122075;27;20454;-72
2021/09/30 15:37:41;;;;;;;9.37;4.23;;;;;;;;;;5127068;27;20528;-71
2021/09/30 15:40:12;;;;;;;10.33;2.77;;;;;;;;;;5131851;27;20489;-72
2021/09/30 15:42:40;;;;;;;7.77;2.07;;;;;;;;;;5131211;27;20532;-72
2021/09/30 15:45:11;;;;;;;11.10;3.70;;;;;;;;;;5133937;27;21018;-71
2021/09/30 15:47:44;;;;;;;8.43;2.87;;;;;;;;;;5121189;27;20450;-72
2021/09/30 15:50:12;;;;;;;8.60;3.60;;;;;;;;;;5120881;27;20496;-72
2021/09/30 15:52:39;;;;;;;9.50;4.37;;;;;;;;;;5125316;27;20884;-72
2021/09/30 15:55:14;;;;;;;3.40;1.50;;;;;;;;;;5120064;27;20455;-71
2021/09/30 15:57:41;;;;;;;6.50;2.47;;;;;;;;;;5135580;27;20548;-72
2021/09/30 16:00:09;;;;;;;6.00;2.90;;;;;;;;;;5133201;27;20509;-73
2021/09/30 16:02:39;;;;;;;8.10;3.33;;;;;;;;;;5125858;27;20480;-72
2021/09/30 16:05:07;;;;;;;7.77;3.00;;;;;;;;;;5137857;27;20468;-71
2021/09/30 16:07:35;;;;;;;4.23;2.03;;;;;;;;;;5123088;27;20713;-71
2021/09/30 16:10:11;;;;;;;7.80;4.53;;;;;;;;;;5115597;27;20520;-72
2021/09/30 16:12:41;;;;;;;7.50;3.10;;;;;;;;;;5120828;27;20442;-70
2021/09/30 16:15:09;;;;;;;4.67;3.00;;;;;;;;;;5131653;27;20548;-70
2021/09/30 16:17:37;;;;;;;5.90;2.63;;;;;;;;;;5129419;27;20455;-72
2021/09/30 16:20:05;;;;;;;5.47;3.80;;;;;;;;;;5122640;27;20458;-71
2021/09/30 16:22:35;;;;;;;7.17;4.13;;;;;;;;;;5133784;27;20462;-71
2021/09/30 16:25:06;;;;;;;6.17;3.30;;;;;;;;;;5134468;27;20446;-71
2021/09/30 16:27:34;;;;;;;14.27;7.10;;;;;;;;;;5116729;27;20473;-71
2021/09/30 16:30:02;;;;;;;4.90;3.57;;;;;;;;;;5121022;27;20494;-72
2021/09/30 16:32:29;;;;;;;6.33;4.57;;;;;;;;;;5120304;27;20898;-72
2021/09/30 16:34:57;;;;;;;7.13;2.00;;;;;;;;;;5130313;27;20469;-71
2021/09/30 16:37:24;;;;;;;6.10;3.03;;;;;;;;;;5118434;27;20451;-70
2021/09/30 16:40:01;;;;;;;3.67;1.67;;;;;;;;;;5120637;27;20466;-72
2021/09/30 16:42:33;;;;;;;8.53;4.00;;;;;;;;;;5115043;27;20446;-72
2021/09/30 16:45:05;;;;;;;7.77;4.23;;;;;;;;;;5130034;27;20453;-71
2021/09/30 16:47:34;;;;;;;11.40;3.77;;;;;;;;;;5133895;27;20482;-71
2021/09/30 16:50:01;;;;;;;6.80;3.60;;;;;;;;;;5127548;27;20767;-70
2021/09/30 16:52:37;;;;;;;6.80;2.87;;;;;;;;;;5123330;27;20473;-73
2021/09/30 16:55:06;;;;;;;7.00;2.70;;;;;;;;;;5115455;27;20919;-71
2021/09/30 16:57:33;;;;;;;3.67;2.07;;;;;;;;;;5114761;27;21063;-71
2021/09/30 17:00:01;;;;;;;10.27;3.97;;;;;;;;;;5118418;27;20469;-72
2021/09/30 17:02:29;;;;;;;11.57;5.60;;;;;;;;;;5119485;27;20442;-72
2021/09/30 17:04:56;;;;;;;5.30;3.80;;;;;;;;;;5115530;27;20550;-72
2021/09/30 17:07:24;;;;;;;4.93;3.90;;;;;;;;;;5115479;27;20461;-72
2021/09/30 17:09:52;;;;;;;10.43;6.00;;;;;;;;;;5115209;27;20482;-72
2021/09/30 17:12:19;;;;;;;7.20;2.87;;;;;;;;;;5124656;27;20439;-72
2021/09/30 17:14:55;;;;;;;4.50;2.30;;;;;;;;;;5134363;27;20458;-72
2021/09/30 17:17:25;;;;;;;8.90;3.90;;;;;;;;;;5125025;27;20475;-72
2021/09/30 17:19:53;;;;;;;11.70;5.00;;;;;;;;;;5117227;27;20447;-71
2021/09/30 17:22:22;;;;;;;9.90;5.90;;;;;;;;;;5118886;27;20486;-72
2021/09/30 17:24:50;;;;;;;7.50;5.67;;;;;;;;;;5130070;27;20743;-71
2021/09/30 17:27:17;;;;;;;14.60;9.37;;;;;;;;;;5135060;27;20486;-71
2021/09/30 17:29:48;;;;;;;6.77;3.80;;;;;;;;;;5127195;27;20486;-73
2021/09/30 17:32:15;;;;;;;6.53;3.70;;;;;;;;;;5115034;27;20450;-72
2021/09/30 17:34:42;;;;;;;3.67;2.43;;;;;;;;;;5115631;27;20450;-71
2021/09/30 17:37:09;;;;;;;6.83;3.57;;;;;;;;;;5118903;27;20477;-70
2021/09/30 17:39:42;;;;;;;7.70;3.03;;;;;;;;;;5122032;27;20548;-70